Time;durP1;ratioP1;P1;durP2;ratioP2;P2;SDS_P1;SDS_P2;PMS_P1;PMS_P2;Temp;Humidity;BMP_temperature;BMP_pressure;BME280_temperature;BME280_humidity;BME280_pressure;Samples;Min_cycle;Max_cycle;Signal;HPM_P1;HPM_P2
2021/11/11 00:00:02;;;;;;;59.83;42.85;;;;;;;3.89;100.00;102372.84;5239232;28;20033;-68
2021/11/11 00:02:33;;;;;;;58.87;42.87;;;;;;;3.95;100.00;102371.81;5240884;28;20463;-68
2021/11/11 00:05:05;;;;;;;63.50;46.08;;;;;;;3.86;100.00;102367.75;5217503;28;20143;-68
2021/11/11 00:07:39;;;;;;;57.47;42.35;;;;;;;3.89;100.00;102365.91;5237484;28;20030;-68
2021/11/11 00:10:13;;;;;;;67.70;45.45;;;;;;;3.77;100.00;102362.88;5238417;28;20478;-68
2021/11/11 00:12:45;;;;;;;64.25;43.75;;;;;;;3.72;100.00;102367.38;5238010;28;20509;-67
2021/11/11 00:15:18;;;;;;;62.33;46.37;;;;;;;3.74;100.00;102355.19;5238540;28;20402;-68
2021/11/11 00:17:49;;;;;;;63.75;45.85;;;;;;;3.66;100.00;102358.03;5237447;28;20029;-69
2021/11/11 00:20:24;;;;;;;61.50;45.42;;;;;;;3.71;100.00;102352.69;5239988;28;20076;-68
2021/11/11 00:22:57;;;;;;;61.70;45.72;;;;;;;3.61;100.00;102346.97;5240079;28;20029;-68
2021/11/11 00:25:29;;;;;;;61.97;43.80;;;;;;;3.71;100.00;102340.56;5238376;28;20026;-68
2021/11/11 00:28:00;;;;;;;57.17;44.03;;;;;;;3.73;100.00;102338.78;5238397;28;20709;-68
2021/11/11 00:30:33;;;;;;;66.82;47.17;;;;;;;3.65;100.00;102333.84;5238857;28;20115;-67
2021/11/11 00:33:05;;;;;;;70.38;49.83;;;;;;;3.65;100.00;102336.44;5237297;28;20036;-68
2021/11/11 00:35:37;;;;;;;73.95;52.15;;;;;;;3.71;100.00;102329.38;5237130;28;20497;-68
2021/11/11 00:38:08;;;;;;;75.35;53.58;;;;;;;3.73;100.00;102332.78;5237079;28;20036;-68
2021/11/11 00:40:39;;;;;;;73.70;53.10;;;;;;;3.76;100.00;102323.16;5239149;28;20092;-67
2021/11/11 00:43:11;;;;;;;72.95;54.63;;;;;;;3.77;100.00;102319.66;5220394;28;20033;-68
2021/11/11 00:45:42;;;;;;;78.45;57.38;;;;;;;3.81;100.00;102326.44;5241983;28;20021;-68
2021/11/11 00:48:13;;;;;;;80.72;58.75;;;;;;;3.84;100.00;102330.69;5241408;28;20088;-67
2021/11/11 00:50:45;;;;;;;79.20;59.83;;;;;;;3.88;100.00;102332.28;5241347;28;20033;-68
2021/11/11 00:53:16;;;;;;;73.85;57.75;;;;;;;3.86;100.00;102331.47;5240171;28;20045;-67
2021/11/11 00:55:48;;;;;;;74.72;56.97;;;;;;;3.87;100.00;102321.06;5243306;28;20063;-68
2021/11/11 00:58:19;;;;;;;79.07;59.50;;;;;;;3.91;100.00;102324.41;5241505;28;20450;-68
2021/11/11 01:00:50;;;;;;;76.93;57.25;;;;;;;3.89;100.00;102327.03;5240756;28;20509;-67
2021/11/11 01:03:30;;;;;;;82.35;59.88;;;;;;;3.92;100.00;102333.03;5240950;28;20312;-68
2021/11/11 01:06:01;;;;;;;77.28;57.95;;;;;;;3.95;100.00;102328.59;5240244;28;20038;-68
2021/11/11 01:08:33;;;;;;;79.50;59.50;;;;;;;3.96;100.00;102321.66;5238471;28;20517;-68
2021/11/11 01:11:05;;;;;;;80.40;59.35;;;;;;;3.98;100.00;102320.72;5242407;28;20510;-68
2021/11/11 01:13:37;;;;;;;85.43;58.97;;;;;;;4.05;100.00;102324.78;5241782;28;20454;-68
2021/11/11 01:16:08;;;;;;;80.00;57.08;;;;;;;4.08;100.00;102326.41;5241976;28;20060;-68
2021/11/11 01:18:40;;;;;;;79.25;59.65;;;;;;;4.07;100.00;102315.19;5241979;28;20033;-68
2021/11/11 01:21:13;;;;;;;78.35;56.58;;;;;;;4.08;100.00;102313.44;5240273;28;20029;-68
2021/11/11 01:23:44;;;;;;;77.18;55.97;;;;;;;4.10;100.00;102312.50;5241506;28;20064;-68
2021/11/11 01:26:16;;;;;;;72.70;53.40;;;;;;;4.08;100.00;102316.88;5240623;28;20112;-68
2021/11/11 01:28:47;;;;;;;73.20;54.92;;;;;;;4.07;100.00;102320.38;5241266;28;20529;-68
2021/11/11 01:31:18;;;;;;;69.70;51.85;;;;;;;4.10;100.00;102324.63;5242468;28;20037;-67
2021/11/11 01:33:50;;;;;;;71.65;52.95;;;;;;;4.10;100.00;102327.22;5241442;28;20094;-68
2021/11/11 01:36:21;;;;;;;69.95;50.22;;;;;;;4.12;100.00;102322.81;5241221;28;20025;-68
2021/11/11 01:38:53;;;;;;;61.67;49.20;;;;;;;4.14;100.00;102334.00;5240928;28;20203;-67
2021/11/11 01:41:24;;;;;;;72.22;50.83;;;;;;;4.12;100.00;102344.41;5239735;28;20028;-68
2021/11/11 01:43:55;;;;;;;72.22;51.15;;;;;;;4.11;100.00;102341.88;5240689;28;20361;-68
2021/11/11 01:46:27;;;;;;;64.63;48.25;;;;;;;4.12;100.00;102333.19;5241335;28;20021;-67
2021/11/11 01:48:59;;;;;;;67.78;50.70;;;;;;;4.11;100.00;102334.94;5239406;28;20034;-67
2021/11/11 01:51:31;;;;;;;65.13;50.38;;;;;;;4.15;100.00;102333.09;5241146;28;20025;-68
2021/11/11 01:54:03;;;;;;;65.57;49.08;;;;;;;4.19;100.00;102326.91;5236084;28;20083;-68
2021/11/11 01:56:36;;;;;;;66.78;49.97;;;;;;;4.25;100.00;102328.44;5240359;28;20040;-68
2021/11/11 01:59:08;;;;;;;69.77;46.90;;;;;;;4.28;100.00;102325.72;5241647;28;20029;-68
2021/11/11 02:01:39;;;;;;;64.68;47.03;;;;;;;4.30;100.00;102323.94;5240713;28;20291;-68
2021/11/11 02:04:11;;;;;;;68.97;46.97;;;;;;;4.34;100.00;102321.16;5238774;28;20464;-68
2021/11/11 02:06:42;;;;;;;65.03;48.05;;;;;;;4.27;100.00;102298.94;5242007;28;20095;-68
2021/11/11 02:09:15;;;;;;;68.13;48.83;;;;;;;4.37;100.00;102326.25;5241132;28;20021;-68
2021/11/11 02:11:48;;;;;;;68.55;47.53;;;;;;;4.41;100.00;102318.38;5240213;28;20060;-68
2021/11/11 02:14:19;;;;;;;63.78;45.47;;;;;;;4.46;100.00;102317.28;5241028;28;20502;-68
2021/11/11 02:16:50;;;;;;;66.13;46.72;;;;;;;4.46;100.00;102311.25;5241800;28;20068;-68
2021/11/11 02:19:21;;;;;;;57.85;41.35;;;;;;;4.51;100.00;102311.94;5239639;28;20036;-68
2021/11/11 02:21:54;;;;;;;59.55;43.10;;;;;;;4.54;100.00;102306.63;5240025;28;20033;-68
2021/11/11 02:24:25;;;;;;;54.50;38.80;;;;;;;4.56;100.00;102310.88;5237461;28;20037;-68
2021/11/11 02:26:56;;;;;;;56.13;40.45;;;;;;;4.61;100.00;102298.56;5237924;28;20385;-68
2021/11/11 02:29:28;;;;;;;58.97;39.63;;;;;;;4.59;100.00;102302.16;5241174;28;20098;-68
2021/11/11 02:31:59;;;;;;;54.63;38.70;;;;;;;4.61;100.00;102300.34;5240980;28;20063;-68
2021/11/11 02:34:30;;;;;;;54.30;39.15;;;;;;;4.66;100.00;102292.38;5237266;28;20060;-66
2021/11/11 02:37:06;;;;;;;52.58;38.17;;;;;;;4.73;100.00;102296.44;5238442;28;20395;-68
2021/11/11 02:39:38;;;;;;;53.17;37.35;;;;;;;4.72;100.00;102298.19;5237565;28;20647;-68
2021/11/11 02:42:10;;;;;;;49.28;36.80;;;;;;;4.73;100.00;102294.69;5240139;28;20595;-67
2021/11/11 02:44:43;;;;;;;59.05;37.28;;;;;;;4.74;100.00;102290.34;5238394;28;20102;-68
2021/11/11 02:47:14;;;;;;;48.60;35.40;;;;;;;4.79;100.00;102278.88;5238270;28;20052;-68
2021/11/11 02:49:46;;;;;;;52.83;36.40;;;;;;;4.81;100.00;102284.00;5238888;28;20022;-67
2021/11/11 02:52:18;;;;;;;53.70;36.00;;;;;;;4.83;100.00;102280.47;5239300;28;20029;-68
2021/11/11 02:54:50;;;;;;;48.40;34.20;;;;;;;4.86;100.00;102282.09;5239612;28;20025;-68
2021/11/11 02:57:21;;;;;;;50.13;34.25;;;;;;;4.84;100.00;102289.09;5239303;28;20549;-68
2021/11/11 02:59:55;;;;;;;49.50;33.72;;;;;;;4.92;100.00;102291.41;5238489;28;20025;-68
2021/11/11 03:02:29;;;;;;;49.20;34.47;;;;;;;4.96;100.00;102290.38;5238620;28;20053;-68
2021/11/11 03:05:06;;;;;;;48.90;33.75;;;;;;;5.00;100.00;102287.63;5238770;28;20123;-68
2021/11/11 03:07:38;;;;;;;48.65;33.40;;;;;;;4.93;100.00;102290.53;5237418;28;20033;-68
2021/11/11 03:10:15;;;;;;;45.40;33.35;;;;;;;4.99;100.00;102287.66;5239291;28;20048;-68
2021/11/11 03:12:47;;;;;;;47.47;32.25;;;;;;;4.94;100.00;102285.25;5219134;28;20071;-70
2021/11/11 03:15:21;;;;;;;47.83;32.03;;;;;;;5.01;100.00;102291.06;5239274;28;20498;-69
2021/11/11 03:17:52;;;;;;;47.65;31.40;;;;;;;4.97;100.00;102289.50;5238892;28;20024;-68
2021/11/11 03:20:24;;;;;;;50.03;32.58;;;;;;;4.96;100.00;102286.03;5238093;28;20040;-70
2021/11/11 03:22:56;;;;;;;50.47;31.58;;;;;;;5.00;100.00;102289.34;5238422;28;20482;-68
2021/11/11 03:25:31;;;;;;;49.55;31.13;;;;;;;5.04;100.00;102289.19;5238027;28;20030;-69
2021/11/11 03:28:03;;;;;;;47.80;29.90;;;;;;;5.09;100.00;102284.66;5238596;28;20394;-68
2021/11/11 03:30:35;;;;;;;46.00;29.90;;;;;;;5.12;100.00;102288.91;5236629;28;20499;-68
2021/11/11 03:33:07;;;;;;;47.80;32.00;;;;;;;5.12;100.00;102288.91;5220507;28;20039;-69
2021/11/11 03:35:39;;;;;;;45.13;30.23;;;;;;;5.11;100.00;102282.00;5238526;28;20029;-68
2021/11/11 03:38:10;;;;;;;45.60;30.23;;;;;;;5.12;100.00;102291.50;5238854;28;20040;-69
2021/11/11 03:40:44;;;;;;;43.25;27.60;;;;;;;5.19;100.00;102292.97;5237954;28;20588;-69
2021/11/11 03:43:16;;;;;;;43.50;30.10;;;;;;;5.17;100.00;102286.13;5236490;28;20025;-68
2021/11/11 03:45:47;;;;;;;46.95;28.42;;;;;;;5.22;100.00;102291.97;5239069;28;20033;-69
2021/11/11 03:48:18;;;;;;;48.90;29.75;;;;;;;5.20;100.00;102278.22;5239053;28;20399;-69
2021/11/11 03:50:50;;;;;;;45.15;28.30;;;;;;;5.24;100.00;102283.22;5238521;28;20039;-69
2021/11/11 03:53:21;;;;;;;42.38;30.00;;;;;;;5.25;100.00;102277.09;5237814;28;20049;-68
2021/11/11 03:55:52;;;;;;;45.83;29.80;;;;;;;5.28;100.00;102283.94;5238739;28;20111;-68
2021/11/11 03:58:24;;;;;;;43.83;28.23;;;;;;;5.34;100.00;102278.50;5238575;28;20033;-68
2021/11/11 04:00:55;;;;;;;46.83;27.50;;;;;;;5.36;100.00;102274.09;5239863;28;20064;-69
2021/11/11 04:03:26;;;;;;;40.83;27.70;;;;;;;5.39;100.00;102289.56;5237922;28;20021;-70
2021/11/11 04:05:57;;;;;;;45.20;27.70;;;;;;;5.40;100.00;102280.84;5235700;28;20464;-68
2021/11/11 04:08:30;;;;;;;44.65;28.13;;;;;;;5.44;100.00;102278.97;5235565;28;20072;-69
2021/11/11 04:11:03;;;;;;;43.58;26.95;;;;;;;5.46;100.00;102275.41;5236293;28;20060;-69
2021/11/11 04:13:35;;;;;;;44.78;28.10;;;;;;;5.41;100.00;102268.69;5237530;28;20037;-69
2021/11/11 04:16:07;;;;;;;42.00;26.60;;;;;;;5.47;100.00;102271.06;5237411;28;20416;-69
2021/11/11 04:18:39;;;;;;;43.65;26.15;;;;;;;5.48;100.00;102277.94;5238002;28;20108;-68
2021/11/11 04:21:10;;;;;;;43.90;27.75;;;;;;;5.49;100.00;102284.81;5240127;28;20415;-70
2021/11/11 04:23:42;;;;;;;48.53;28.35;;;;;;;5.54;100.00;102277.72;5241582;28;20033;-69
2021/11/11 04:26:27;;;;;;;44.85;27.02;;;;;;;5.53;100.00;102282.06;5241675;28;20053;-68
2021/11/11 04:29:45;;;;;;;44.05;27.88;;;;;;;5.52;100.00;102275.16;5221718;28;20033;-68
2021/11/11 04:32:02;;;;;;;48.03;27.80;;;;;;;5.57;100.00;102275.84;5226025;28;20029;-68
2021/11/11 04:34:34;;;;;;;41.33;26.08;;;;;;;5.59;100.00;102275.75;5241980;28;20068;-68
2021/11/11 04:37:29;;;;;;;43.03;27.17;;;;;;;5.57;100.00;102272.38;5240129;28;20100;-68
2021/11/11 04:45:51;;;;;;;42.67;26.60;;;;;;;5.59;100.00;102279.19;5243868;28;20040;-68
2021/11/11 05:04:51;;;;;;;43.75;27.23;;;;;;;5.50;100.00;102277.00;5242096;28;20037;-68
2021/11/11 05:07:22;;;;;;;43.95;27.30;;;;;;;5.55;100.00;102275.03;5238459;28;20036;-69
2021/11/11 05:09:54;;;;;;;42.00;27.95;;;;;;;5.58;100.00;102279.28;5239721;28;20572;-68
2021/11/11 05:12:25;;;;;;;44.20;27.15;;;;;;;5.61;100.00;102287.78;5240305;28;20033;-68
2021/11/11 05:14:56;;;;;;;41.78;26.77;;;;;;;5.67;100.00;102289.28;5238968;28;20441;-68
2021/11/11 05:17:28;;;;;;;41.97;26.55;;;;;;;5.66;100.00;102279.81;5241444;28;20022;-68
2021/11/11 05:19:59;;;;;;;44.17;27.00;;;;;;;5.68;100.00;102284.94;5238728;28;20474;-68
2021/11/11 05:22:30;;;;;;;45.53;27.02;;;;;;;5.73;100.00;102296.84;5239216;28;20029;-68
2021/11/11 05:25:04;;;;;;;41.70;26.42;;;;;;;5.73;100.00;102296.00;5241378;28;20052;-68
2021/11/11 05:27:36;;;;;;;42.15;26.10;;;;;;;5.75;100.00;102305.41;5240452;28;20049;-68
2021/11/11 05:30:12;;;;;;;43.42;26.40;;;;;;;5.85;100.00;102303.28;5238914;28;20078;-68
2021/11/11 05:32:44;;;;;;;39.65;27.30;;;;;;;5.79;100.00;102303.53;5239004;28;20099;-68
2021/11/11 05:35:16;;;;;;;40.88;27.60;;;;;;;5.82;100.00;102312.06;5240886;28;20041;-68
2021/11/11 05:37:48;;;;;;;38.33;25.58;;;;;;;5.86;100.00;102307.56;5241420;28;20021;-68
2021/11/11 05:40:21;;;;;;;39.25;25.88;;;;;;;5.86;100.00;102310.19;5239579;28;20029;-68
2021/11/11 05:42:53;;;;;;;38.77;26.87;;;;;;;5.89;100.00;102314.41;5242031;28;20143;-68
2021/11/11 05:45:25;;;;;;;41.88;25.42;;;;;;;5.91;100.00;102313.44;5240099;28;20033;-68
2021/11/11 05:47:56;;;;;;;41.47;25.13;;;;;;;5.92;100.00;102316.88;5240422;28;20086;-68
2021/11/11 05:50:29;;;;;;;40.78;24.98;;;;;;;5.91;100.00;102310.84;5241518;28;20033;-68
2021/11/11 05:53:00;;;;;;;38.65;24.95;;;;;;;5.92;100.00;102309.97;5240160;28;20883;-69
2021/11/11 05:55:32;;;;;;;40.17;25.52;;;;;;;5.94;100.00;102315.09;5239367;28;20124;-68
2021/11/11 05:58:03;;;;;;;36.70;24.33;;;;;;;5.96;100.00;102323.69;5240399;28;20014;-68
2021/11/11 06:00:35;;;;;;;39.20;25.42;;;;;;;5.98;100.00;102322.69;5240161;28;20068;-68
2021/11/11 06:03:06;;;;;;;43.33;26.98;;;;;;;5.98;100.00;102327.91;5239168;28;20104;-68
2021/11/11 06:05:37;;;;;;;38.22;24.45;;;;;;;6.00;100.00;102322.66;5238354;28;20037;-68
2021/11/11 06:08:09;;;;;;;42.58;25.25;;;;;;;5.97;100.00;102323.63;5223506;28;20548;-68
2021/11/11 06:10:40;;;;;;;40.45;24.65;;;;;;;5.97;100.00;102326.22;5242156;28;20033;-68
2021/11/11 06:13:12;;;;;;;38.95;24.05;;;;;;;5.98;100.00;102337.47;5242327;28;20475;-68
2021/11/11 06:15:43;;;;;;;36.70;24.15;;;;;;;6.01;100.00;102338.19;5242309;28;20395;-68
2021/11/11 06:18:15;;;;;;;40.50;24.42;;;;;;;6.02;100.00;102329.50;5241389;28;20483;-68
2021/11/11 06:20:53;;;;;;;41.17;24.48;;;;;;;6.01;100.00;102338.19;5239110;28;20029;-68
2021/11/11 06:23:24;;;;;;;38.13;24.65;;;;;;;6.00;100.00;102346.91;5240638;28;20020;-68
2021/11/11 06:25:56;;;;;;;38.55;24.27;;;;;;;6.02;100.00;102342.50;5239729;28;20450;-68
2021/11/11 06:28:28;;;;;;;37.55;24.02;;;;;;;6.03;100.00;102340.75;5239017;28;20067;-68
2021/11/11 06:30:59;;;;;;;39.28;24.70;;;;;;;6.03;100.00;102351.16;5221099;28;20490;-68
2021/11/11 06:33:30;;;;;;;38.42;25.42;;;;;;;6.04;100.00;102345.88;5238103;28;20084;-68
2021/11/11 06:36:02;;;;;;;41.80;24.83;;;;;;;6.08;100.00;102346.59;5241492;28;20013;-68
2021/11/11 06:38:34;;;;;;;38.72;24.42;;;;;;;6.06;100.00;102349.25;5241452;28;20029;-68
2021/11/11 06:41:06;;;;;;;40.92;25.15;;;;;;;6.08;100.00;102357.00;5236862;28;20036;-69
2021/11/11 06:43:37;;;;;;;38.13;24.80;;;;;;;6.09;100.00;102350.88;5238836;28;20032;-68
2021/11/11 06:46:10;;;;;;;38.05;24.17;;;;;;;6.13;100.00;102356.78;5241932;28;20029;-69
2021/11/11 06:48:42;;;;;;;35.45;23.95;;;;;;;6.16;100.00;102364.47;5240172;28;20163;-68
2021/11/11 06:51:14;;;;;;;38.47;24.80;;;;;;;6.17;100.00;102358.34;5239424;28;20375;-68
2021/11/11 06:53:45;;;;;;;37.17;23.58;;;;;;;6.18;100.00;102365.28;5237513;28;20057;-68
2021/11/11 06:56:16;;;;;;;35.72;24.23;;;;;;;6.31;100.00;102367.28;5239301;28;20029;-68
2021/11/11 06:58:48;;;;;;;39.03;25.65;;;;;;;6.23;100.00;102368.53;5236359;28;20036;-68
2021/11/11 07:01:21;;;;;;;38.63;24.58;;;;;;;6.21;100.00;102372.94;5240485;28;20285;-68
2021/11/11 07:03:52;;;;;;;36.90;25.05;;;;;;;6.23;100.00;102373.72;5236956;28;20391;-68
2021/11/11 07:06:24;;;;;;;38.05;24.58;;;;;;;6.27;100.00;102376.13;5237790;28;20033;-68
2021/11/11 07:08:55;;;;;;;40.15;24.30;;;;;;;6.26;100.00;102378.81;5238299;28;20017;-68
2021/11/11 07:11:26;;;;;;;38.20;25.95;;;;;;;6.27;100.00;102376.13;5238475;28;20028;-68
2021/11/11 07:13:58;;;;;;;36.50;24.83;;;;;;;6.26;100.00;102378.81;5240063;28;20221;-68
2021/11/11 07:16:29;;;;;;;42.20;24.90;;;;;;;6.26;100.00;102379.66;5238981;28;20057;-68
2021/11/11 07:19:00;;;;;;;41.60;24.95;;;;;;;6.28;100.00;102380.41;5223179;28;20039;-68
2021/11/11 07:21:32;;;;;;;43.85;25.90;;;;;;;6.28;100.00;102374.38;5241275;28;20385;-68
2021/11/11 07:24:04;;;;;;;38.45;26.75;;;;;;;6.30;100.00;102377.75;5241641;28;20030;-67
2021/11/11 07:26:36;;;;;;;37.75;25.05;;;;;;;6.30;100.00;102376.00;5239603;28;20037;-68
2021/11/11 07:29:07;;;;;;;37.40;24.90;;;;;;;6.31;100.00;102377.69;5237554;28;20119;-68
2021/11/11 07:31:38;;;;;;;38.05;25.17;;;;;;;6.32;100.00;102368.94;5237869;28;20094;-68
2021/11/11 07:34:10;;;;;;;39.75;27.35;;;;;;;6.31;100.00;102371.63;5237708;28;20020;-68
2021/11/11 07:36:41;;;;;;;39.72;25.75;;;;;;;6.33;100.00;102375.03;5238833;28;20446;-68
2021/11/11 07:39:14;;;;;;;37.10;25.30;;;;;;;6.48;100.00;102370.94;5238623;28;20360;-68
2021/11/11 07:41:46;;;;;;;;;;;;;;;6.99;100.00;102375.59;5239001;28;20043;-68
2021/11/11 07:44:17;;;;;;;36.17;24.13;;;;;;;6.61;100.00;102382.50;5238147;28;19920;-68
2021/11/11 07:46:49;;;;;;;40.15;24.90;;;;;;;6.62;100.00;102393.75;5238765;28;20323;-68
2021/11/11 07:49:21;;;;;;;36.88;25.45;;;;;;;6.64;100.00;102386.72;5238725;28;20072;-68
2021/11/11 07:51:52;;;;;;;36.50;24.33;;;;;;;6.63;100.00;102382.41;5236746;28;20277;-68
2021/11/11 07:54:23;;;;;;;37.58;25.15;;;;;;;6.65;100.00;102391.84;5240648;28;20057;-68
2021/11/11 07:56:55;;;;;;;35.95;24.58;;;;;;;6.69;100.00;102398.63;5242193;28;20079;-68
2021/11/11 07:59:27;;;;;;;36.58;27.00;;;;;;;6.68;100.00;102409.97;5242643;28;20111;-68
2021/11/11 08:01:58;;;;;;;36.58;23.83;;;;;;;6.71;100.00;102401.19;5239913;28;20108;-68
2021/11/11 08:04:29;;;;;;;39.05;25.25;;;;;;;6.69;100.00;102397.78;5242933;28;20025;-68
2021/11/11 08:07:01;;;;;;;37.13;25.17;;;;;;;6.69;100.00;102392.56;5241361;28;20032;-68
2021/11/11 08:09:32;;;;;;;34.22;24.40;;;;;;;6.63;100.00;102379.81;5240042;28;20503;-68
2021/11/11 08:12:04;;;;;;;37.53;24.27;;;;;;;6.66;100.00;102392.69;5241105;28;20512;-68
2021/11/11 08:14:35;;;;;;;33.42;23.55;;;;;;;6.67;100.00;102390.06;5240390;28;20483;-68
2021/11/11 08:17:10;;;;;;;38.25;25.02;;;;;;;6.74;100.00;102390.59;5241196;28;20316;-68
2021/11/11 08:19:42;;;;;;;34.88;24.45;;;;;;;6.76;100.00;102394.00;5240745;28;20025;-68
2021/11/11 08:22:13;;;;;;;38.57;24.97;;;;;;;6.83;100.00;102396.28;5242679;28;20021;-68
2021/11/11 08:24:45;;;;;;;37.30;25.58;;;;;;;6.83;100.00;102383.25;5241017;28;20041;-68
2021/11/11 08:27:19;;;;;;;38.53;24.00;;;;;;;6.93;100.00;102395.84;5241307;28;20061;-68
2021/11/11 08:29:51;;;;;;;36.33;24.55;;;;;;;6.92;100.00;102384.59;5241669;28;20440;-68
2021/11/11 08:32:22;;;;;;;38.75;25.65;;;;;;;6.94;100.00;102387.97;5240229;28;20025;-68
2021/11/11 08:34:54;;;;;;;36.03;25.40;;;;;;;6.99;100.00;102391.22;5242119;28;20036;-68
2021/11/11 08:37:25;;;;;;;38.92;25.75;;;;;;;7.03;100.00;102391.94;5239793;28;20394;-68
2021/11/11 08:39:56;;;;;;;37.38;24.88;;;;;;;6.99;100.00;102386.00;5241069;28;20025;-68
2021/11/11 08:42:28;;;;;;;38.92;26.25;;;;;;;7.05;100.00;102392.72;5239763;28;20094;-68
2021/11/11 08:45:00;;;;;;;40.88;26.52;;;;;;;7.08;100.00;102387.34;5240278;28;20018;-68
2021/11/11 08:47:31;;;;;;;40.97;25.63;;;;;;;7.09;100.00;102385.59;5241051;28;20033;-68
2021/11/11 08:50:04;;;;;;;37.15;26.48;;;;;;;7.18;100.00;102383.41;5241830;28;20117;-68
2021/11/11 08:52:38;;;;;;;38.40;26.00;;;;;;;7.22;100.00;102387.56;5239813;28;20529;-68
2021/11/11 08:55:15;;;;;;;35.83;26.02;;;;;;;7.25;100.00;102395.25;5241213;28;20427;-68
2021/11/11 08:57:47;;;;;;;36.88;26.15;;;;;;;7.26;100.00;102386.50;5239984;28;20017;-68
2021/11/11 09:00:22;;;;;;;38.40;26.45;;;;;;;7.31;100.00;102374.13;5241627;28;20033;-68
2021/11/11 09:02:57;;;;;;;38.03;25.80;;;;;;;7.38;100.00;102379.88;5243071;28;20040;-68
2021/11/11 09:05:32;;;;;;;33.17;25.25;;;;;;;7.44;100.00;102379.59;5240139;28;20025;-68
2021/11/11 09:08:05;;;;;;;40.50;24.85;;;;;;;7.52;100.00;102380.06;5240331;28;20033;-68
2021/11/11 09:10:40;;;;;;;36.22;23.27;;;;;;;7.61;100.00;102380.53;5241032;28;20037;-68
2021/11/11 09:13:12;;;;;;;35.22;24.92;;;;;;;7.62;100.00;102375.28;5223582;28;20044;-68
2021/11/11 09:15:43;;;;;;;32.90;23.35;;;;;;;7.73;100.00;102380.81;5240274;28;20025;-68
2021/11/11 09:18:15;;;;;;;32.60;24.35;;;;;;;7.80;100.00;102379.63;5239599;28;20033;-68
2021/11/11 09:20:47;;;;;;;34.78;24.10;;;;;;;7.89;100.00;102390.53;5241455;28;20032;-68
2021/11/11 09:23:18;;;;;;;34.58;23.77;;;;;;;7.95;100.00;102387.59;5243121;28;20471;-68
2021/11/11 09:25:49;;;;;;;33.42;24.33;;;;;;;8.01;100.00;102393.34;5240894;28;20025;-68
2021/11/11 09:28:21;;;;;;;35.95;24.33;;;;;;;8.08;100.00;102393.91;5239832;28;20137;-68
2021/11/11 09:30:52;;;;;;;36.55;25.50;;;;;;;8.13;100.00;102383.22;5241167;28;20028;-68
2021/11/11 09:33:24;;;;;;;36.88;24.08;;;;;;;8.18;100.00;102383.84;5243006;28;20471;-68
2021/11/11 09:35:55;;;;;;;35.50;23.80;;;;;;;8.24;100.00;102383.53;5240701;28;20087;-68
2021/11/11 09:38:27;;;;;;;32.17;23.10;;;;;;;8.29;100.00;102387.59;5241266;28;20031;-68
2021/11/11 09:40:58;;;;;;;36.40;23.40;;;;;;;8.35;100.00;102388.22;5238916;28;20353;-68
2021/11/11 09:43:30;;;;;;;34.58;24.45;;;;;;;8.39;100.00;102388.03;5241258;28;20369;-68
2021/11/11 09:46:02;;;;;;;35.85;23.80;;;;;;;8.42;100.00;102393.09;5240502;28;20206;-68
2021/11/11 09:48:35;;;;;;;31.90;22.87;;;;;;;8.51;100.00;102392.59;5240125;28;20391;-68
2021/11/11 09:51:10;;;;;;;30.42;22.65;;;;;;;8.55;100.00;102395.06;5241064;28;20502;-68
2021/11/11 09:53:51;;;;;;;34.10;23.25;;;;;;;8.56;100.00;102394.13;5239587;28;20056;-68
2021/11/11 09:59:12;;;;;;;35.75;23.42;;;;;;;8.59;100.00;102384.38;5240265;28;20119;-68
2021/11/11 10:01:46;;;;;;;35.17;23.45;;;;;;;8.72;100.00;102395.06;5239163;28;20042;-68
2021/11/11 10:04:18;;;;;;;34.15;24.20;;;;;;;8.77;100.00;102393.03;5238594;28;20108;-68
2021/11/11 10:06:49;;;;;;;32.33;22.30;;;;;;;8.79;100.00;102383.34;5240021;28;20060;-68
2021/11/11 10:09:23;;;;;;;33.88;23.65;;;;;;;8.88;100.00;102395.09;5241806;28;20512;-68
2021/11/11 10:12:00;;;;;;;32.85;23.58;;;;;;;8.97;100.00;102395.44;5240639;28;20130;-68
2021/11/11 10:14:40;;;;;;;31.67;22.33;;;;;;;9.01;100.00;102399.56;5237213;28;20099;-68
2021/11/11 10:17:12;;;;;;;31.05;21.80;;;;;;;8.99;100.00;102395.38;5237590;28;20030;-68
2021/11/11 10:19:47;;;;;;;31.27;22.30;;;;;;;9.11;100.00;102396.47;5242058;28;20032;-68
2021/11/11 10:22:29;;;;;;;31.80;22.27;;;;;;;9.16;100.00;102391.84;5239175;28;20355;-68
2021/11/11 10:25:05;;;;;;;27.08;20.80;;;;;;;9.21;100.00;102410.75;5238800;28;20027;-68
2021/11/11 10:27:42;;;;;;;28.67;21.80;;;;;;;9.23;100.00;102403.66;5240265;28;20029;-68
2021/11/11 10:30:15;;;;;;;32.95;21.20;;;;;;;9.30;100.00;102401.56;5238478;28;20507;-68
2021/11/11 10:32:49;;;;;;;26.48;20.65;;;;;;;9.32;100.00;102404.91;5240226;28;20033;-68
2021/11/11 10:35:23;;;;;;;29.25;21.25;;;;;;;9.35;100.00;102402.97;5239293;28;20033;-68
2021/11/11 10:38:03;;;;;;;30.48;20.58;;;;;;;9.41;100.00;102407.88;5240061;28;20051;-68
2021/11/11 10:40:36;;;;;;;27.20;20.08;;;;;;;9.42;100.00;102400.88;5241714;28;20040;-68
2021/11/11 10:43:10;;;;;;;27.20;20.38;;;;;;;9.48;100.00;102403.16;5238827;28;20025;-68
2021/11/11 10:45:46;;;;;;;24.33;18.80;;;;;;;9.49;100.00;102402.22;5238344;28;20069;-68
2021/11/11 10:48:23;;;;;;;27.95;19.17;;;;;;;9.56;100.00;102413.22;5233637;28;20025;-68
2021/11/11 10:51:05;;;;;;;26.38;19.80;;;;;;;9.64;100.00;102401.38;5239188;28;20055;-68
2021/11/11 10:53:37;;;;;;;26.92;19.17;;;;;;;9.62;100.00;102403.25;5238382;28;20079;-68
2021/11/11 10:56:09;;;;;;;25.33;18.40;;;;;;;9.71;100.00;102396.66;5240693;28;20029;-68
2021/11/11 10:58:40;;;;;;;24.23;17.70;;;;;;;9.77;100.00;102390.22;5240047;28;20387;-68
2021/11/11 11:01:14;;;;;;;26.73;17.27;;;;;;;9.84;100.00;102392.38;5239763;28;20398;-68
2021/11/11 11:03:47;;;;;;;26.55;17.85;;;;;;;9.87;100.00;102389.59;5238341;28;20422;-68
2021/11/11 11:06:27;;;;;;;28.85;18.58;;;;;;;9.96;100.00;102381.25;5239229;28;20561;-68
2021/11/11 11:08:59;;;;;;;27.95;18.75;;;;;;;9.92;100.00;102377.09;5239182;28;20048;-68
2021/11/11 11:11:34;;;;;;;24.38;17.90;;;;;;;9.98;100.00;102379.34;5238082;28;20029;-68
2021/11/11 11:14:19;;;;;;;24.30;17.48;;;;;;;10.19;100.00;102384.28;5238936;28;20044;-68
2021/11/11 11:16:50;;;;;;;25.65;17.10;;;;;;;10.07;100.00;102385.00;5238852;28;20491;-68
2021/11/11 11:19:22;;;;;;;23.55;17.25;;;;;;;10.10;100.00;102390.91;5237944;28;20056;-68
2021/11/11 11:21:54;;;;;;;23.10;16.60;;;;;;;10.12;100.00;102377.72;5237506;28;20119;-69
2021/11/11 11:24:28;;;;;;;23.90;17.05;;;;;;;10.14;100.00;102373.22;5237339;28;20090;-68
2021/11/11 11:27:04;;;;;;;30.35;17.08;;;;;;;10.15;100.00;102381.00;5237390;28;20060;-68
2021/11/11 11:29:56;;;;;;;23.48;16.70;;;;;;;10.24;100.00;102369.16;5236881;28;20375;-68
2021/11/11 11:32:31;;;;;;;23.80;15.82;;;;;;;10.31;100.00;102367.88;5237851;28;20022;-68
2021/11/11 11:35:05;;;;;;;22.45;16.10;;;;;;;10.31;100.00;102362.66;5237368;28;20036;-68
2021/11/11 11:37:37;;;;;;;22.00;16.73;;;;;;;10.35;100.00;102368.56;5235180;28;20049;-68
2021/11/11 11:40:12;;;;;;;22.00;15.32;;;;;;;10.47;100.00;102365.19;5236598;28;20585;-68
2021/11/11 11:42:46;;;;;;;21.83;15.55;;;;;;;10.47;100.00;102370.44;5235907;28;20061;-68
2021/11/11 11:45:23;;;;;;;19.95;15.43;;;;;;;10.57;100.00;102373.31;5236360;28;20072;-68
2021/11/11 11:48:05;;;;;;;21.05;15.32;;;;;;;10.51;100.00;102369.31;5235452;28;20095;-68
2021/11/11 11:50:47;;;;;;;22.73;15.55;;;;;;;10.62;100.00;102373.91;5238005;28;20017;-68
2021/11/11 11:53:24;;;;;;;20.40;14.70;;;;;;;10.57;100.00;102362.84;5235456;28;20137;-69
2021/11/11 11:56:06;;;;;;;22.65;16.30;;;;;;;10.70;100.00;102382.97;5237117;28;20025;-69
2021/11/11 11:58:42;;;;;;;22.63;14.65;;;;;;;10.68;100.00;102378.75;5236516;28;20562;-68